EPWR

 

Copernicus Wrocław Airport

Wrocław, Poland

TAF EPWR 231130Z 2312/2412 27008KT CAVOK PROB30 2315/2318 4000 BR BECMG 2318/2321 SCT004 BKN013 PROB40 TEMPO 2321/2412 2500 -SN BR BKN002 OVC010